Time;durP1;ratioP1;P1;durP2;ratioP2;P2;SDS_P1;SDS_P2;PMS_P1;PMS_P2;Temp;Humidity;BMP_temperature;BMP_pressure;BME280_temperature;BME280_humidity;BME280_pressure;Samples;Min_cycle;Max_cycle;Signal;HPM_P1;HPM_P2
2023/09/02 00:01:22;;;;;;;15.93;11.27;;;;;;;16.28;100.00;101613.81;4997356;28;20033;-89
2023/09/02 00:03:48;;;;;;;17.77;11.35;;;;;;;16.36;100.00;101623.91;5002131;28;20035;-90
2023/09/02 00:06:13;;;;;;;15.75;10.70;;;;;;;16.20;100.00;101590.38;5001611;28;20030;-90
2023/09/02 00:08:39;;;;;;;16.00;10.73;;;;;;;16.30;100.00;101614.22;5000469;28;20029;-90
2023/09/02 00:11:04;;;;;;;19.80;12.07;;;;;;;16.37;100.00;101620.69;5005214;28;20033;-90
2023/09/02 00:13:29;;;;;;;18.05;10.65;;;;;;;16.32;100.00;101617.44;5005565;28;20049;-92
2023/09/02 00:15:55;;;;;;;19.73;12.40;;;;;;;16.31;100.00;101608.16;4995270;28;20570;-92
2023/09/02 00:18:20;;;;;;;24.02;13.48;;;;;;;16.36;100.00;101615.41;5003398;28;20116;-92
2023/09/02 00:20:46;;;;;;;16.73;11.20;;;;;;;16.15;100.00;101590.75;5004190;28;20374;-92
2023/09/02 00:23:12;;;;;;;17.50;11.40;;;;;;;16.31;100.00;101615.81;5005483;28;20125;-90
2023/09/02 00:25:38;;;;;;;24.55;15.07;;;;;;;16.18;100.00;101595.63;4999733;28;20456;-90
2023/09/02 00:28:03;;;;;;;18.63;12.05;;;;;;;16.20;100.00;101610.16;5004214;28;20029;-90
2023/09/02 00:30:29;;;;;;;16.00;11.50;;;;;;;16.15;100.00;101596.41;5005234;28;20045;-90
2023/09/02 00:32:54;;;;;;;18.90;11.82;;;;;;;16.29;100.00;101615.41;5004166;28;20044;-91
2023/09/02 00:35:19;;;;;;;14.38;10.93;;;;;;;16.33;100.00;101617.03;5023455;28;20373;-90
2023/09/02 00:37:45;;;;;;;13.55;10.02;;;;;;;16.22;100.00;101599.25;5014895;28;20022;-89
2023/09/02 00:40:13;;;;;;;18.40;11.73;;;;;;;16.19;100.00;101594.41;5011564;28;20030;-90
2023/09/02 00:42:40;;;;;;;15.98;10.80;;;;;;;16.33;100.00;101622.69;5010611;28;20045;-89
2023/09/02 00:45:06;;;;;;;19.42;12.15;;;;;;;16.27;100.00;101607.34;5017105;28;20060;-89
2023/09/02 00:47:31;;;;;;;14.82;10.30;;;;;;;16.32;100.00;101609.78;5013136;28;20062;-89
2023/09/02 00:49:57;;;;;;;19.27;11.65;;;;;;;16.24;100.00;101605.31;5012984;28;20087;-89
2023/09/02 00:52:23;;;;;;;17.67;11.68;;;;;;;16.32;100.00;101615.44;5021981;28;20076;-90
2023/09/02 00:54:49;;;;;;;15.52;10.77;;;;;;;16.28;100.00;101616.63;5002370;28;20030;-89
2023/09/02 00:57:15;;;;;;;20.55;13.13;;;;;;;16.22;100.00;101599.25;5008090;28;20029;-89
2023/09/02 00:59:40;;;;;;;24.50;14.00;;;;;;;16.31;100.00;101619.44;5009488;28;20025;-89
2023/09/02 01:02:08;;;;;;;22.58;14.45;;;;;;;16.12;100.00;101608.50;5017633;28;20037;-90
2023/09/02 01:04:34;;;;;;;16.45;11.02;;;;;;;16.20;100.00;101625.06;5018434;28;20116;-90
2023/09/02 01:07:03;;;;;;;21.02;11.35;;;;;;;16.23;100.00;101621.47;5003356;28;20562;-90
2023/09/02 01:09:31;;;;;;;21.60;12.55;;;;;;;16.23;100.00;101612.16;5023512;28;20034;-89
2023/09/02 01:11:56;;;;;;;21.88;13.15;;;;;;;16.32;100.00;101623.06;5008140;28;20018;-90
2023/09/02 01:14:22;;;;;;;24.48;15.60;;;;;;;16.14;100.00;101598.41;4998589;28;20784;-90
2023/09/02 01:16:48;;;;;;;24.35;13.27;;;;;;;16.11;100.00;101606.91;4992137;28;20506;-90
2023/09/02 01:19:16;;;;;;;22.23;13.38;;;;;;;16.23;100.00;101629.09;4996475;28;20050;-90
2023/09/02 01:22:08;;;;;;;20.02;12.88;;;;;;;16.16;100.00;101621.44;4987023;28;20053;-89
2023/09/02 01:25:10;;;;;;;21.05;13.00;;;;;;;16.20;100.00;101636.38;4998990;28;20030;-89
2023/09/02 01:28:03;;;;;;;24.45;13.15;;;;;;;16.18;100.00;101637.97;5000916;28;20080;-90
2023/09/02 01:30:31;;;;;;;;;;;;;;;16.20;100.00;101639.19;4982636;28;20123;-90
2023/09/02 01:32:57;;;;;;;21.20;13.13;;;;;;;16.10;100.00;101628.66;4985816;28;20021;-89
2023/09/02 01:35:29;;;;;;;21.65;12.27;;;;;;;16.05;100.00;101618.56;4985337;28;20407;-90
2023/09/02 01:37:57;;;;;;;27.60;16.17;;;;;;;16.10;100.00;101634.31;4983341;28;20034;-90
2023/09/02 01:40:25;;;;;;;21.48;12.85;;;;;;;16.12;100.00;101637.56;4986761;28;20286;-89
2023/09/02 01:42:57;;;;;;;22.00;14.10;;;;;;;16.12;100.00;101636.75;5003498;28;20777;-90
2023/09/02 01:45:29;;;;;;;20.88;14.25;;;;;;;16.01;100.00;101617.75;4978094;28;20563;-90
2023/09/02 01:47:55;;;;;;;28.83;16.95;;;;;;;15.95;100.00;101619.34;4987522;28;22454;-91
2023/09/02 01:50:24;;;;;;;19.95;13.70;;;;;;;16.05;100.00;101632.69;4988334;28;20030;-90
2023/09/02 01:52:51;;;;;;;22.25;13.77;;;;;;;16.02;100.00;101635.50;4984983;28;20062;-91
2023/09/02 01:55:17;;;;;;;21.58;13.52;;;;;;;16.08;100.00;101636.72;4987859;28;20033;-92
2023/09/02 01:57:43;;;;;;;26.35;15.65;;;;;;;16.03;100.00;101620.97;4984524;28;20394;-92
2023/09/02 02:00:09;;;;;;;24.98;14.77;;;;;;;16.14;100.00;101643.63;4984775;28;20437;-93
2023/09/02 02:02:38;;;;;;;20.42;13.57;;;;;;;15.93;100.00;101610.44;4985013;28;20037;-90
2023/09/02 02:05:06;;;;;;;24.95;16.20;;;;;;;15.99;100.00;101625.00;4982289;28;20034;-90
2023/09/02 02:07:36;;;;;;;23.00;14.88;;;;;;;16.09;100.00;101635.53;4982110;28;20616;-90
2023/09/02 02:10:05;;;;;;;28.88;16.85;;;;;;;16.09;100.00;101626.25;4984194;28;20026;-90
2023/09/02 02:12:31;;;;;;;19.15;13.77;;;;;;;16.14;100.00;101640.78;4983046;28;20777;-90
2023/09/02 02:14:56;;;;;;;26.58;15.95;;;;;;;16.11;100.00;101646.44;5017947;28;20077;-90
2023/09/02 02:17:22;;;;;;;20.40;13.93;;;;;;;15.97;100.00;101633.06;5002170;28;20440;-89
2023/09/02 02:19:48;;;;;;;25.38;15.55;;;;;;;15.95;100.00;101624.97;5018513;28;20044;-89
2023/09/02 02:22:13;;;;;;;26.08;14.43;;;;;;;15.96;100.00;101632.25;5008142;28;20036;-89
2023/09/02 02:24:38;;;;;;;23.38;14.48;;;;;;;16.01;100.00;101634.69;5006106;28;20037;-89
2023/09/02 02:27:04;;;;;;;20.58;13.30;;;;;;;15.87;100.00;101620.50;5006094;28;20188;-90
2023/09/02 02:29:30;;;;;;;22.73;12.90;;;;;;;15.89;100.00;101637.84;5021173;28;20803;-89
2023/09/02 02:31:55;;;;;;;22.00;15.05;;;;;;;15.90;100.00;101628.19;5005152;28;20033;-90
2023/09/02 02:34:23;;;;;;;20.08;13.23;;;;;;;15.96;100.00;101632.25;5021537;28;20033;-89
2023/09/02 02:36:49;;;;;;;29.65;17.98;;;;;;;16.04;100.00;101650.84;5021803;28;20052;-90
2023/09/02 02:39:15;;;;;;;30.20;17.80;;;;;;;15.93;100.00;101644.34;5020259;28;20091;-89
2023/09/02 02:41:40;;;;;;;28.27;17.98;;;;;;;15.88;100.00;101656.00;5006138;28;20432;-90
2023/09/02 02:44:06;;;;;;;25.02;14.85;;;;;;;15.82;100.00;101649.13;5018580;28;20037;-89
2023/09/02 02:46:31;;;;;;;20.85;13.93;;;;;;;15.77;100.00;101646.66;5007773;28;20033;-89
2023/09/02 02:48:56;;;;;;;23.55;15.25;;;;;;;15.82;100.00;101654.78;5004760;28;20087;-90
2023/09/02 02:51:22;;;;;;;22.13;14.38;;;;;;;15.85;100.00;101639.84;5025014;28;20061;-90
2023/09/02 02:53:48;;;;;;;24.20;15.43;;;;;;;15.87;100.00;101645.13;5017838;28;20037;-88
2023/09/02 02:56:14;;;;;;;23.15;15.05;;;;;;;16.05;100.00;101662.94;5000522;28;20041;-89
2023/09/02 02:58:40;;;;;;;26.05;14.85;;;;;;;16.04;100.00;101661.31;5021666;28;20415;-89
2023/09/02 03:01:07;;;;;;;27.50;16.10;;;;;;;16.03;100.00;101654.88;5019612;28;20028;-88
2023/09/02 03:03:34;;;;;;;23.35;14.25;;;;;;;16.12;100.00;101665.78;5019222;28;20057;-89
2023/09/02 03:06:08;;;;;;;21.23;12.38;;;;;;;15.98;100.00;101641.16;5020319;28;20575;-89
2023/09/02 03:08:35;;;;;;;26.25;16.20;;;;;;;16.08;100.00;101664.16;4999515;28;20424;-89
2023/09/02 03:11:04;;;;;;;30.67;17.30;;;;;;;16.06;100.00;101653.25;5005247;28;20121;-88
2023/09/02 03:13:30;;;;;;;30.17;17.10;;;;;;;16.00;100.00;101655.69;5009679;28;20112;-88
2023/09/02 03:15:59;;;;;;;30.13;18.13;;;;;;;16.02;100.00;101664.56;5019727;28;20045;-89
2023/09/02 03:18:24;;;;;;;28.25;15.40;;;;;;;15.95;100.00;101663.72;5019789;28;20068;-89
2023/09/02 03:20:50;;;;;;;34.42;19.23;;;;;;;15.90;100.00;101662.06;5003376;28;20065;-89
2023/09/02 03:23:15;;;;;;;24.10;15.10;;;;;;;15.78;100.00;101637.00;5005338;28;20037;-90
2023/09/02 03:25:41;;;;;;;38.13;19.85;;;;;;;15.74;100.00;101631.34;5000219;28;20061;-89
2023/09/02 03:28:07;;;;;;;25.75;16.20;;;;;;;15.88;100.00;101647.53;5018020;28;20029;-89
2023/09/02 03:30:33;;;;;;;29.38;16.98;;;;;;;15.85;100.00;101651.97;4997330;28;20057;-89
2023/09/02 03:32:58;;;;;;;28.35;17.85;;;;;;;15.78;100.00;101642.66;5016907;28;20504;-89
2023/09/02 03:35:24;;;;;;;23.33;14.75;;;;;;;15.77;100.00;101641.03;4999978;28;20021;-90
2023/09/02 03:37:50;;;;;;;25.35;15.10;;;;;;;15.88;100.00;101653.19;5004714;28;20501;-89
2023/09/02 03:40:15;;;;;;;30.75;19.52;;;;;;;15.95;100.00;101658.88;5000079;28;20394;-89
2023/09/02 03:42:41;;;;;;;26.00;15.80;;;;;;;15.81;100.00;101630.56;5005674;28;20021;-89
2023/09/02 03:45:09;;;;;;;32.28;18.38;;;;;;;15.91;100.00;101658.03;4999719;28;20486;-89
2023/09/02 03:47:35;;;;;;;32.80;18.80;;;;;;;15.70;100.00;101638.13;5003900;28;20033;-90
2023/09/02 03:50:02;;;;;;;25.75;15.65;;;;;;;15.87;100.00;101660.03;4999768;28;20159;-89
2023/09/02 03:52:27;;;;;;;28.98;16.58;;;;;;;15.80;100.00;101634.59;5019610;28;20040;-89
2023/09/02 03:54:53;;;;;;;25.25;15.43;;;;;;;15.90;100.00;101655.63;5005565;28;20028;-89
2023/09/02 03:57:19;;;;;;;24.50;15.63;;;;;;;15.91;100.00;101658.03;5005087;28;20033;-89
2023/09/02 03:59:45;;;;;;;27.85;16.55;;;;;;;15.97;100.00;101673.41;5002276;28;20052;-88
2023/09/02 04:02:10;;;;;;;32.58;18.75;;;;;;;16.04;100.00;101679.09;5004406;28;20112;-89
2023/09/02 04:04:35;;;;;;;27.15;15.93;;;;;;;16.00;100.00;101672.63;5002133;28;20029;-88
2023/09/02 04:07:01;;;;;;;28.17;16.38;;;;;;;15.92;100.00;101665.31;5016609;28;20030;-88
2023/09/02 04:09:27;;;;;;;28.40;17.08;;;;;;;15.96;100.00;101665.31;5004766;28;20055;-89
2023/09/02 04:11:53;;;;;;;28.50;15.00;;;;;;;15.96;100.00;101666.16;5004336;28;20026;-88
2023/09/02 04:14:18;;;;;;;22.52;13.32;;;;;;;16.00;100.00;101675.44;4992961;28;20059;-91
2023/09/02 04:16:44;;;;;;;29.48;16.67;;;;;;;16.02;100.00;101663.72;5013324;28;20043;-89
2023/09/02 04:19:09;;;;;;;23.38;14.40;;;;;;;16.02;100.00;101672.19;5008177;28;20137;-88
2023/09/02 04:21:35;;;;;;;24.08;14.40;;;;;;;16.03;100.00;101677.47;5005081;28;20115;-89
2023/09/02 04:24:00;;;;;;;31.73;19.27;;;;;;;15.94;100.00;101673.38;5003517;28;20033;-89
2023/09/02 04:26:26;;;;;;;24.63;14.68;;;;;;;15.99;100.00;101687.94;4995531;28;20489;-88
2023/09/02 04:28:55;;;;;;;35.30;21.50;;;;;;;16.00;100.00;101688.72;5004289;28;20062;-88
2023/09/02 04:31:21;;;;;;;28.27;16.95;;;;;;;15.89;100.00;101671.75;5003862;28;20032;-89
2023/09/02 04:33:46;;;;;;;27.35;16.10;;;;;;;15.94;100.00;101693.97;5002629;28;20029;-89
2023/09/02 04:36:12;;;;;;;38.40;20.25;;;;;;;15.88;100.00;101687.06;5019921;28;20025;-89
2023/09/02 04:38:37;;;;;;;23.48;16.08;;;;;;;15.93;100.00;101694.34;5022142;28;20049;-88
2023/09/02 04:41:06;;;;;;;27.85;16.85;;;;;;;15.94;100.00;101695.94;5001711;28;20146;-89
2023/09/02 04:43:33;;;;;;;27.55;15.82;;;;;;;15.93;100.00;101705.66;5000719;28;20693;-88
2023/09/02 04:46:02;;;;;;;29.48;16.73;;;;;;;15.82;100.00;101691.47;5001720;28;20029;-89
2023/09/02 04:48:28;;;;;;;31.05;17.80;;;;;;;15.72;100.00;101683.75;5020198;28;20026;-88
2023/09/02 04:50:54;;;;;;;25.33;15.85;;;;;;;15.82;100.00;101711.22;5006009;28;20040;-88
2023/09/02 04:53:19;;;;;;;28.58;17.25;;;;;;;15.83;100.00;101707.19;5007092;28;20029;-89
2023/09/02 04:55:48;;;;;;;30.67;17.17;;;;;;;15.94;100.00;101708.09;5027648;28;20037;-89
2023/09/02 04:58:14;;;;;;;27.45;16.55;;;;;;;15.81;100.00;101693.50;5020530;28;20021;-89
2023/09/02 05:00:40;;;;;;;28.95;18.65;;;;;;;15.76;100.00;101696.66;5008228;28;20034;-89
2023/09/02 05:03:06;;;;;;;30.15;17.95;;;;;;;15.87;100.00;101713.66;5004313;28;20037;-88
2023/09/02 05:05:32;;;;;;;35.97;20.33;;;;;;;15.88;100.00;101708.84;5027920;28;20525;-89
2023/09/02 05:07:58;;;;;;;31.50;17.70;;;;;;;15.94;100.00;101713.72;5007497;28;20040;-89
2023/09/02 05:10:24;;;;;;;29.00;17.15;;;;;;;15.96;100.00;101719.78;5021960;28;20021;-88
2023/09/02 05:12:49;;;;;;;32.20;18.80;;;;;;;15.92;100.00;101713.31;5004876;28;20029;-88
2023/09/02 05:15:14;;;;;;;31.50;18.13;;;;;;;15.88;100.00;101709.66;5004821;28;20360;-90
2023/09/02 05:17:40;;;;;;;32.05;19.02;;;;;;;15.89;100.00;101722.56;5019882;28;20107;-89
2023/09/02 05:20:06;;;;;;;29.70;16.90;;;;;;;15.92;100.00;101737.91;5016299;28;20053;-88
2023/09/02 05:22:33;;;;;;;31.52;16.90;;;;;;;15.90;100.00;101741.13;5022157;28;20068;-91
2023/09/02 05:24:59;;;;;;;27.23;17.83;;;;;;;15.85;100.00;101721.72;5008427;28;20033;-91
2023/09/02 05:27:24;;;;;;;31.77;17.45;;;;;;;15.97;100.00;101743.97;5006789;28;20025;-91
2023/09/02 05:29:50;;;;;;;28.63;18.33;;;;;;;15.94;100.00;101736.31;5006002;28;20029;-92
2023/09/02 05:32:16;;;;;;;33.17;18.63;;;;;;;15.91;100.00;101737.09;5008427;28;20029;-91
2023/09/02 05:34:42;;;;;;;27.63;16.92;;;;;;;15.92;100.00;101737.91;5021830;28;20111;-91
2023/09/02 05:37:07;;;;;;;31.67;18.55;;;;;;;15.73;100.00;101722.06;5009161;28;20038;-91
2023/09/02 05:39:33;;;;;;;37.28;21.50;;;;;;;15.79;100.00;101729.78;5011330;28;20061;-91
2023/09/02 05:41:58;;;;;;;40.40;22.65;;;;;;;15.75;100.00;101728.13;5021582;28;20108;-92
2023/09/02 05:44:24;;;;;;;44.83;23.25;;;;;;;15.74;100.00;101730.13;5008381;28;20047;-91
2023/09/02 05:46:49;;;;;;;30.90;17.83;;;;;;;15.81;100.00;101751.94;5006126;28;20033;-91
2023/09/02 05:49:15;;;;;;;38.63;20.80;;;;;;;15.84;100.00;101748.34;5014494;28;20045;-91
2023/09/02 05:51:41;;;;;;;28.42;17.45;;;;;;;15.91;100.00;101758.88;5008426;28;20374;-92
2023/09/02 05:54:08;;;;;;;30.35;17.27;;;;;;;15.91;100.00;101759.69;5009161;28;20033;-91
2023/09/02 05:56:34;;;;;;;33.75;19.10;;;;;;;15.97;100.00;101754.47;5009314;28;20117;-91
2023/09/02 05:59:03;;;;;;;32.75;17.90;;;;;;;15.83;100.00;101724.13;5009919;28;20657;-91
2023/09/02 06:01:30;;;;;;;39.55;19.15;;;;;;;15.90;100.00;101746.78;5006998;28;20033;-90
2023/09/02 06:03:55;;;;;;;27.02;17.67;;;;;;;15.78;100.00;101741.44;5023609;28;20481;-91
2023/09/02 06:06:22;;;;;;;33.95;19.90;;;;;;;15.84;100.00;101751.16;5026589;28;20040;-91
2023/09/02 06:08:48;;;;;;;41.63;21.55;;;;;;;15.77;100.00;101739.81;5010013;28;20532;-91
2023/09/02 06:11:13;;;;;;;44.90;22.92;;;;;;;15.90;100.00;101774.22;5002208;28;20044;-91
2023/09/02 06:13:39;;;;;;;31.02;17.55;;;;;;;15.77;100.00;101754.75;5009171;28;20500;-91
2023/09/02 06:16:05;;;;;;;39.50;21.85;;;;;;;15.94;100.00;101781.50;5004810;28;20024;-90
2023/09/02 06:18:35;;;;;;;40.78;21.90;;;;;;;15.90;100.00;101782.69;5024208;28;20034;-92
2023/09/02 06:21:11;;;;;;;42.25;23.05;;;;;;;15.86;100.00;101768.53;5005665;28;20033;-91
2023/09/02 06:23:37;;;;;;;37.67;21.02;;;;;;;15.90;100.00;101788.31;5020517;28;20037;-91
2023/09/02 06:26:03;;;;;;;32.35;18.95;;;;;;;15.87;100.00;101772.97;5022296;28;20044;-91
2023/09/02 06:28:28;;;;;;;33.72;19.60;;;;;;;16.04;100.00;101802.50;5003291;28;20033;-92
2023/09/02 06:30:54;;;;;;;34.25;19.67;;;;;;;16.07;100.00;101789.66;5025253;28;20025;-91
2023/09/02 06:33:22;;;;;;;30.13;17.65;;;;;;;15.96;100.00;101790.38;5006904;28;20477;-90
2023/09/02 06:35:49;;;;;;;37.33;21.27;;;;;;;15.99;100.00;101789.59;5025003;28;20032;-90
2023/09/02 06:38:14;;;;;;;43.33;22.77;;;;;;;15.94;100.00;101795.59;5006811;28;20056;-90
2023/09/02 06:40:40;;;;;;;38.10;22.38;;;;;;;15.89;100.00;101790.31;5023390;28;20533;-88
2023/09/02 06:43:05;;;;;;;41.40;20.85;;;;;;;15.98;100.00;101799.28;5023815;28;20117;-88
2023/09/02 06:45:30;;;;;;;33.35;18.33;;;;;;;15.91;100.00;101799.19;5008759;28;20087;-88
2023/09/02 06:47:56;;;;;;;31.75;18.67;;;;;;;16.00;100.00;101807.31;5001140;28;20032;-89
2023/09/02 06:50:21;;;;;;;29.02;16.77;;;;;;;16.05;100.00;101821.91;5022672;28;20030;-88
2023/09/02 06:52:47;;;;;;;41.05;22.65;;;;;;;16.00;100.00;101813.81;5004407;28;20500;-88
2023/09/02 06:55:14;;;;;;;42.85;23.85;;;;;;;16.13;100.00;101822.75;5005239;28;20029;-88
2023/09/02 06:57:43;;;;;;;43.47;25.80;;;;;;;16.12;100.00;101825.97;5006620;28;20449;-88
2023/09/02 07:00:09;;;;;;;41.67;22.85;;;;;;;16.06;100.00;101814.22;5004257;28;20088;-88
2023/09/02 07:02:35;;;;;;;36.67;21.20;;;;;;;15.97;100.00;101825.88;5007613;28;20040;-88
2023/09/02 07:05:01;;;;;;;44.85;24.42;;;;;;;15.95;100.00;101824.66;5002192;28;20034;-89
2023/09/02 07:07:26;;;;;;;41.25;22.13;;;;;;;16.10;100.00;101839.69;5004982;28;20033;-89
2023/09/02 07:09:52;;;;;;;39.83;22.55;;;;;;;16.09;100.00;101844.53;5006586;28;20033;-89
2023/09/02 07:12:17;;;;;;;40.13;21.30;;;;;;;15.98;100.00;101841.63;5001125;28;20125;-89
2023/09/02 07:14:43;;;;;;;46.15;24.85;;;;;;;15.97;100.00;101837.16;5026064;28;20038;-88
2023/09/02 07:17:08;;;;;;;40.50;22.80;;;;;;;15.98;100.00;101847.28;5004377;28;20025;-88
2023/09/02 07:19:34;;;;;;;39.65;22.52;;;;;;;15.93;100.00;101835.53;5005623;28;20480;-87
2023/09/02 07:21:59;;;;;;;43.58;21.75;;;;;;;16.00;100.00;101858.16;5020446;28;20511;-89
2023/09/02 07:24:25;;;;;;;35.70;21.10;;;;;;;16.05;100.00;101866.28;5005700;28;20068;-88
2023/09/02 07:26:50;;;;;;;33.42;18.27;;;;;;;16.11;100.00;101861.09;5008496;28;20029;-89
2023/09/02 07:29:15;;;;;;;42.47;21.67;;;;;;;15.99;100.00;101846.06;5018735;28;20485;-89
2023/09/02 07:31:41;;;;;;;38.25;22.52;;;;;;;16.13;100.00;101867.97;5009520;28;20025;-89
2023/09/02 07:34:06;;;;;;;44.95;23.58;;;;;;;16.14;100.00;101868.75;5006859;28;20025;-89
2023/09/02 07:36:32;;;;;;;42.70;22.00;;;;;;;16.15;100.00;101870.38;5007668;28;20029;-89
2023/09/02 07:38:57;;;;;;;37.95;20.85;;;;;;;16.19;100.00;101876.84;5017494;28;20067;-88
2023/09/02 07:41:23;;;;;;;44.22;23.60;;;;;;;16.13;100.00;101875.59;5015951;28;20030;-90
2023/09/02 07:43:48;;;;;;;37.55;20.40;;;;;;;16.05;100.00;101878.38;5005152;28;20040;-88
2023/09/02 07:46:13;;;;;;;36.85;19.05;;;;;;;16.12;100.00;101888.91;5020647;28;20029;-88
2023/09/02 07:48:39;;;;;;;41.83;22.48;;;;;;;16.15;100.00;101890.13;5003739;28;20044;-89
2023/09/02 07:51:04;;;;;;;39.88;22.17;;;;;;;16.17;100.00;101893.38;5006475;28;20044;-89
2023/09/02 07:53:29;;;;;;;37.63;18.52;;;;;;;16.18;100.00;101892.19;5007535;28;20148;-88
2023/09/02 07:55:55;;;;;;;36.83;19.13;;;;;;;16.26;100.00;101897.50;5022691;28;20030;-88
2023/09/02 07:58:20;;;;;;;41.70;22.52;;;;;;;16.16;100.00;101894.59;4996809;28;20536;-88
2023/09/02 08:00:46;;;;;;;42.10;23.40;;;;;;;16.15;100.00;101890.13;5025842;28;20035;-88
2023/09/02 08:03:11;;;;;;;46.67;20.90;;;;;;;16.20;100.00;101896.25;5020995;28;20494;-89
2023/09/02 08:05:39;;;;;;;36.13;19.58;;;;;;;16.28;100.00;101908.41;5007063;28;20524;-89
2023/09/02 08:08:05;;;;;;;43.92;21.40;;;;;;;16.33;100.00;101908.03;5010659;28;20091;-89
2023/09/02 08:10:30;;;;;;;45.78;22.73;;;;;;;16.23;100.00;101894.63;5008062;28;20389;-89
2023/09/02 08:12:56;;;;;;;36.67;20.88;;;;;;;16.23;100.00;101900.28;5009657;28;20029;-88
2023/09/02 08:15:22;;;;;;;38.53;22.35;;;;;;;16.19;100.00;101894.63;4995608;28;20702;-89
2023/09/02 08:17:47;;;;;;;40.80;22.85;;;;;;;16.27;100.00;101915.25;5002407;28;20030;-88
2023/09/02 08:20:13;;;;;;;45.13;22.52;;;;;;;16.42;100.00;101919.81;5004040;28;20022;-88
2023/09/02 08:22:39;;;;;;;43.80;23.00;;;;;;;16.37;100.00;101923.00;5001600;28;20032;-88
2023/09/02 08:25:05;;;;;;;42.53;23.00;;;;;;;16.38;100.00;101933.13;5017619;28;20035;-88
2023/09/02 08:27:31;;;;;;;39.80;24.73;;;;;;;16.42;100.00;101925.47;5005901;28;20485;-88
2023/09/02 08:29:56;;;;;;;49.17;22.88;;;;;;;16.43;100.00;101924.25;5017544;28;20041;-88
2023/09/02 08:32:22;;;;;;;45.40;23.80;;;;;;;16.49;100.00;101933.19;5001862;28;20022;-89
2023/09/02 08:34:47;;;;;;;45.38;23.55;;;;;;;16.54;100.00;101940.47;5006761;28;20048;-88
2023/09/02 08:37:12;;;;;;;48.33;24.67;;;;;;;16.56;100.00;101935.25;5002550;28;20416;-88
2023/09/02 08:39:38;;;;;;;49.25;25.02;;;;;;;16.59;100.00;101946.59;5000425;28;20500;-89
2023/09/02 08:42:05;;;;;;;48.50;23.90;;;;;;;16.66;100.00;101951.47;5001687;28;20029;-88
2023/09/02 08:44:35;;;;;;;48.25;22.95;;;;;;;16.68;100.00;101954.72;5003137;28;20034;-88
2023/09/02 08:47:02;;;;;;;48.70;24.65;;;;;;;16.69;100.00;101956.31;4998558;28;20026;-88
2023/09/02 08:49:28;;;;;;;47.70;23.35;;;;;;;16.58;100.00;101958.28;5006705;28;20030;-90
2023/09/02 08:51:55;;;;;;;43.28;21.92;;;;;;;16.56;100.00;101969.97;5007245;28;20033;-90
2023/09/02 08:54:22;;;;;;;39.30;21.58;;;;;;;16.45;100.00;101952.94;4999879;28;20040;-89
2023/09/02 08:56:51;;;;;;;44.55;22.27;;;;;;;16.65;100.00;101980.94;5000639;28;20048;-90
2023/09/02 08:59:17;;;;;;;37.15;21.55;;;;;;;16.51;100.00;101961.03;5024857;28;20026;-90
2023/09/02 09:01:45;;;;;;;44.97;22.42;;;;;;;16.43;100.00;101966.66;5007172;28;20073;-90
2023/09/02 09:04:15;;;;;;;42.72;23.10;;;;;;;16.56;100.00;101986.13;5004568;28;20375;-89
2023/09/02 09:06:41;;;;;;;47.75;25.17;;;;;;;16.51;100.00;101980.81;5014062;28;20037;-89
2023/09/02 09:09:10;;;;;;;44.88;24.50;;;;;;;16.52;100.00;101985.28;4996579;28;20724;-89
2023/09/02 09:11:39;;;;;;;43.58;24.45;;;;;;;16.48;100.00;101975.97;5024191;28;20375;-89
2023/09/02 09:14:10;;;;;;;44.30;24.95;;;;;;;16.41;100.00;101963.41;5005943;28;20053;-89
2023/09/02 09:16:38;;;;;;;45.03;23.75;;;;;;;16.62;100.00;101995.84;4993986;28;20027;-90
2023/09/02 09:19:04;;;;;;;50.78;25.05;;;;;;;16.45;100.00;101955.75;4993717;28;20033;-89
2023/09/02 09:21:29;;;;;;;44.75;25.13;;;;;;;16.63;100.00;101963.53;5004294;28;20026;-90
2023/09/02 09:23:55;;;;;;;45.25;23.05;;;;;;;16.71;100.00;101984.19;5002609;28;20501;-89
2023/09/02 09:26:21;;;;;;;51.15;24.25;;;;;;;16.59;100.00;101974.00;5002882;28;20446;-90
2023/09/02 09:28:56;;;;;;;36.38;20.25;;;;;;;16.63;100.00;101980.50;4999187;28;20406;-89
2023/09/02 09:31:22;;;;;;;49.20;25.02;;;;;;;16.67;100.00;101981.34;4982951;28;20061;-89
2023/09/02 09:34:00;;;;;;;42.25;23.83;;;;;;;16.81;100.00;101975.00;4983352;28;20561;-90
2023/09/02 09:36:32;;;;;;;46.47;24.67;;;;;;;16.92;100.00;101986.38;4990328;28;20100;-89
2023/09/02 09:39:05;;;;;;;35.78;21.38;;;;;;;17.04;100.00;101998.19;4986254;28;20394;-87
2023/09/02 09:41:32;;;;;;;44.13;24.17;;;;;;;17.15;100.00;101995.41;4999335;28;20509;-87
2023/09/02 09:44:04;;;;;;;43.85;25.15;;;;;;;17.22;100.00;102006.78;4988650;28;20031;-86
2023/09/02 09:46:30;;;;;;;48.63;22.60;;;;;;;17.26;100.00;102015.25;4983898;28;20026;-88
2023/09/02 09:49:01;;;;;;;45.85;23.67;;;;;;;17.34;100.00;102018.94;4982855;28;20525;-87
2023/09/02 09:51:27;;;;;;;41.90;23.73;;;;;;;17.40;100.00;102017.34;4986506;28;20117;-87
2023/09/02 09:53:52;;;;;;;40.38;22.02;;;;;;;17.48;100.00;102019.00;4978271;28;20747;-87
2023/09/02 09:56:18;;;;;;;44.83;23.60;;;;;;;17.50;100.00;102016.59;4970812;28;20029;-87
2023/09/02 09:58:44;;;;;;;47.70;23.65;;;;;;;17.53;100.00;102015.78;4973590;28;20030;-87
2023/09/02 10:01:09;;;;;;;49.22;23.58;;;;;;;17.59;100.00;102014.19;4972338;28;20774;-87
2023/09/02 10:03:35;;;;;;;50.38;24.30;;;;;;;17.67;100.00;102027.16;4978005;28;20146;-87
2023/09/02 10:06:01;;;;;;;43.60;22.10;;;;;;;17.58;100.00;102006.09;4984384;28;20026;-87
2023/09/02 10:08:27;;;;;;;41.88;23.30;;;;;;;17.73;100.00;102035.25;4981142;28;20121;-87
2023/09/02 10:10:52;;;;;;;45.38;21.75;;;;;;;17.70;100.00;102036.88;4998145;28;20133;-86
2023/09/02 10:13:18;;;;;;;40.75;22.38;;;;;;;17.65;100.00;102029.56;5001823;28;20035;-87
2023/09/02 10:15:46;;;;;;;42.00;22.48;;;;;;;17.80;100.00;102035.28;5016723;28;20029;-87
2023/09/02 10:18:12;;;;;;;43.95;21.95;;;;;;;17.90;100.00;102034.53;5004676;28;20120;-88
2023/09/02 10:20:38;;;;;;;41.75;21.13;;;;;;;17.82;100.00;102024.38;5021988;28;20031;-87
2023/09/02 10:23:10;;;;;;;50.40;23.15;;;;;;;17.94;100.00;102046.69;4992698;28;20076;-86
2023/09/02 10:25:41;;;;;;;50.47;23.73;;;;;;;18.12;100.00;102048.75;5014947;28;20034;-87
2023/09/02 10:28:11;;;;;;;41.85;21.17;;;;;;;17.87;100.00;102035.34;5017214;28;20067;-87
2023/09/02 10:30:43;;;;;;;40.40;22.30;;;;;;;17.97;100.00;102051.56;5019635;28;20037;-87
2023/09/02 10:33:26;;;;;;;40.28;19.92;;;;;;;18.01;100.00;102055.19;4996627;28;20029;-87
2023/09/02 10:36:03;;;;;;;37.85;20.15;;;;;;;18.07;100.00;102056.44;5010791;28;20104;-87
2023/09/02 10:38:32;;;;;;;43.85;21.38;;;;;;;18.08;100.00;102055.22;5003925;28;20032;-92
2023/09/02 10:41:12;;;;;;;34.67;18.42;;;;;;;18.07;100.00;102056.44;5016879;28;20684;-85
2023/09/02 10:43:39;;;;;;;39.22;20.08;;;;;;;18.02;100.00;102042.66;5004502;28;20983;-85
2023/09/02 10:46:07;;;;;;;36.70;20.38;;;;;;;18.10;100.00;102066.16;5022541;28;20030;-85
2023/09/02 10:48:33;;;;;;;32.95;17.70;;;;;;;18.16;100.00;102070.22;5006114;28;20030;-85
2023/09/02 10:50:59;;;;;;;35.10;18.17;;;;;;;18.20;100.00;102070.22;5001013;28;20064;-85
2023/09/02 10:54:01;;;;;;;35.83;18.55;;;;;;;18.23;100.00;102070.22;5018108;28;20480;-85
2023/09/02 10:56:34;;;;;;;33.50;18.73;;;;;;;18.34;100.00;102058.91;5018714;28;20045;-87
2023/09/02 10:59:01;;;;;;;33.35;17.60;;;;;;;18.27;100.00;102068.19;5016542;28;20087;-85
2023/09/02 11:01:42;;;;;;;34.65;18.40;;;;;;;18.57;100.00;102066.19;5016455;28;20021;-85